sensor_id;sensor_type;location;lat;lon;timestamp;pressure;altitude;pressure_sealevel;temperature
68588;BMP180;55560;52.174;20.996;2022-10-17T00:01:06;101428.60;;;13.70
68588;BMP180;55560;52.174;20.996;2022-10-17T00:03:36;101431.60;;;13.70
68588;BMP180;55560;52.174;20.996;2022-10-17T00:06:11;101433.20;;;13.70
68588;BMP180;55560;52.174;20.996;2022-10-17T00:08:40;101433.60;;;13.70
68588;BMP180;55560;52.174;20.996;2022-10-17T00:11:18;101434.40;;;13.68
68588;BMP180;55560;52.174;20.996;2022-10-17T00:13:49;101437.40;;;13.60
68588;BMP180;55560;52.174;20.996;2022-10-17T00:16:35;101439.00;;;13.60
68588;BMP180;55560;52.174;20.996;2022-10-17T00:19:05;101440.40;;;13.60
68588;BMP180;55560;52.174;20.996;2022-10-17T00:21:33;101436.40;;;13.60
68588;BMP180;55560;52.174;20.996;2022-10-17T00:24:01;101437.20;;;13.60
68588;BMP180;55560;52.174;20.996;2022-10-17T00:26:29;101436.20;;;13.60
68588;BMP180;55560;52.174;20.996;2022-10-17T00:28:57;101427.80;;;13.56
68588;BMP180;55560;52.174;20.996;2022-10-17T00:31:25;101427.80;;;13.50
68588;BMP180;55560;52.174;20.996;2022-10-17T00:33:53;101436.20;;;13.50
68588;BMP180;55560;52.174;20.996;2022-10-17T00:36:25;101435.00;;;13.50
68588;BMP180;55560;52.174;20.996;2022-10-17T00:38:57;101431.00;;;13.50
68588;BMP180;55560;52.174;20.996;2022-10-17T00:41:30;101429.00;;;13.50
68588;BMP180;55560;52.174;20.996;2022-10-17T00:44:55;101433.00;;;13.42
68588;BMP180;55560;52.174;20.996;2022-10-17T00:46:57;101438.20;;;13.40
68588;BMP180;55560;52.174;20.996;2022-10-17T00:49:29;101441.60;;;13.40
68588;BMP180;55560;52.174;20.996;2022-10-17T00:52:02;101449.00;;;13.40
68588;BMP180;55560;52.174;20.996;2022-10-17T00:54:41;101446.40;;;13.40
68588;BMP180;55560;52.174;20.996;2022-10-17T00:57:11;101443.40;;;13.40
68588;BMP180;55560;52.174;20.996;2022-10-17T00:59:40;101440.80;;;13.34
68588;BMP180;55560;52.174;20.996;2022-10-17T01:02:13;101441.80;;;13.30
68588;BMP180;55560;52.174;20.996;2022-10-17T01:06:18;101438.00;;;13.30
68588;BMP180;55560;52.174;20.996;2022-10-17T01:08:46;101435.80;;;13.30
68588;BMP180;55560;52.174;20.996;2022-10-17T01:11:42;101433.20;;;13.28
68588;BMP180;55560;52.174;20.996;2022-10-17T01:14:32;101447.00;;;13.22
68588;BMP180;55560;52.174;20.996;2022-10-17T01:37:40;101433.80;;;13.20
68588;BMP180;55560;52.174;20.996;2022-10-17T01:40:34;101435.40;;;13.20
68588;BMP180;55560;52.174;20.996;2022-10-17T01:43:10;101434.40;;;13.22
68588;BMP180;55560;52.174;20.996;2022-10-17T01:45:51;101432.60;;;13.30
68588;BMP180;55560;52.174;20.996;2022-10-17T01:48:24;101438.60;;;13.30
68588;BMP180;55560;52.174;20.996;2022-10-17T01:51:00;101440.20;;;13.36
68588;BMP180;55560;52.174;20.996;2022-10-17T01:53:35;101433.40;;;13.40
68588;BMP180;55560;52.174;20.996;2022-10-17T01:56:06;101438.00;;;13.40
68588;BMP180;55560;52.174;20.996;2022-10-17T01:58:42;101446.60;;;13.40
68588;BMP180;55560;52.174;20.996;2022-10-17T02:01:12;101444.20;;;13.40
68588;BMP180;55560;52.174;20.996;2022-10-17T02:03:41;101443.00;;;13.50
68588;BMP180;55560;52.174;20.996;2022-10-17T02:06:10;101446.20;;;13.50
68588;BMP180;55560;52.174;20.996;2022-10-17T02:08:47;101439.80;;;13.48
68588;BMP180;55560;52.174;20.996;2022-10-17T02:11:23;101433.00;;;13.48
68588;BMP180;55560;52.174;20.996;2022-10-17T02:17:13;101435.40;;;13.50
68588;BMP180;55560;52.174;20.996;2022-10-17T02:22:58;101446.40;;;13.50
68588;BMP180;55560;52.174;20.996;2022-10-17T02:25:47;101455.00;;;13.50
68588;BMP180;55560;52.174;20.996;2022-10-17T02:31:02;101447.40;;;13.44
68588;BMP180;55560;52.174;20.996;2022-10-17T02:33:37;101454.20;;;13.40
68588;BMP180;55560;52.174;20.996;2022-10-17T02:36:12;101458.40;;;13.40
68588;BMP180;55560;52.174;20.996;2022-10-17T02:38:43;101462.00;;;13.40
68588;BMP180;55560;52.174;20.996;2022-10-17T02:41:15;101469.20;;;13.40
68588;BMP180;55560;52.174;20.996;2022-10-17T02:43:47;101478.60;;;13.40
68588;BMP180;55560;52.174;20.996;2022-10-17T02:46:19;101479.80;;;13.40
68588;BMP180;55560;52.174;20.996;2022-10-17T02:49:01;101475.80;;;13.40
68588;BMP180;55560;52.174;20.996;2022-10-17T02:52:01;101475.40;;;13.30
68588;BMP180;55560;52.174;20.996;2022-10-17T02:54:41;101479.00;;;13.30
68588;BMP180;55560;52.174;20.996;2022-10-17T02:57:18;101484.40;;;13.30
68588;BMP180;55560;52.174;20.996;2022-10-17T02:59:48;101492.40;;;13.30
68588;BMP180;55560;52.174;20.996;2022-10-17T03:02:16;101493.60;;;13.30
68588;BMP180;55560;52.174;20.996;2022-10-17T03:04:46;101490.80;;;13.26
68588;BMP180;55560;52.174;20.996;2022-10-17T03:07:15;101495.60;;;13.20
68588;BMP180;55560;52.174;20.996;2022-10-17T03:09:43;101502.00;;;13.20
68588;BMP180;55560;52.174;20.996;2022-10-17T03:12:11;101508.40;;;13.20
68588;BMP180;55560;52.174;20.996;2022-10-17T03:14:39;101514.00;;;13.20
68588;BMP180;55560;52.174;20.996;2022-10-17T03:17:07;101522.80;;;13.20
68588;BMP180;55560;52.174;20.996;2022-10-17T03:19:35;101521.80;;;13.20
68588;BMP180;55560;52.174;20.996;2022-10-17T03:22:03;101520.40;;;13.24
68588;BMP180;55560;52.174;20.996;2022-10-17T03:24:32;101522.00;;;13.22
68588;BMP180;55560;52.174;20.996;2022-10-17T03:27:00;101517.40;;;13.20
68588;BMP180;55560;52.174;20.996;2022-10-17T03:29:28;101516.20;;;13.20
68588;BMP180;55560;52.174;20.996;2022-10-17T03:31:56;101515.80;;;13.20
68588;BMP180;55560;52.174;20.996;2022-10-17T03:34:25;101510.40;;;13.20
68588;BMP180;55560;52.174;20.996;2022-10-17T03:36:52;101507.60;;;13.24
68588;BMP180;55560;52.174;20.996;2022-10-17T03:39:21;101519.20;;;13.24
68588;BMP180;55560;52.174;20.996;2022-10-17T03:41:49;101519.80;;;13.28
68588;BMP180;55560;52.174;20.996;2022-10-17T03:44:17;101519.40;;;13.30
68588;BMP180;55560;52.174;20.996;2022-10-17T03:46:45;101523.40;;;13.30
68588;BMP180;55560;52.174;20.996;2022-10-17T03:49:13;101520.00;;;13.30
68588;BMP180;55560;52.174;20.996;2022-10-17T03:51:41;101520.80;;;13.30
68588;BMP180;55560;52.174;20.996;2022-10-17T03:54:11;101517.00;;;13.30
68588;BMP180;55560;52.174;20.996;2022-10-17T03:56:39;101508.00;;;13.30
68588;BMP180;55560;52.174;20.996;2022-10-17T03:59:13;101507.40;;;13.30
68588;BMP180;55560;52.174;20.996;2022-10-17T04:01:43;101507.20;;;13.30
68588;BMP180;55560;52.174;20.996;2022-10-17T04:04:11;101515.60;;;13.30
68588;BMP180;55560;52.174;20.996;2022-10-17T04:06:39;101522.00;;;13.30
68588;BMP180;55560;52.174;20.996;2022-10-17T04:09:09;101526.40;;;13.30
68588;BMP180;55560;52.174;20.996;2022-10-17T04:12:04;101527.40;;;13.30
68588;BMP180;55560;52.174;20.996;2022-10-17T04:14:32;101526.60;;;13.30
68588;BMP180;55560;52.174;20.996;2022-10-17T04:17:01;101527.40;;;13.20
68588;BMP180;55560;52.174;20.996;2022-10-17T04:19:29;101531.80;;;13.20
68588;BMP180;55560;52.174;20.996;2022-10-17T04:21:56;101535.40;;;13.20
68588;BMP180;55560;52.174;20.996;2022-10-17T04:24:24;101534.20;;;13.20
68588;BMP180;55560;52.174;20.996;2022-10-17T04:26:57;101540.40;;;13.20
68588;BMP180;55560;52.174;20.996;2022-10-17T04:29:27;101543.20;;;13.20
68588;BMP180;55560;52.174;20.996;2022-10-17T04:32:04;101544.80;;;13.20
68588;BMP180;55560;52.174;20.996;2022-10-17T04:34:42;101546.60;;;13.20
68588;BMP180;55560;52.174;20.996;2022-10-17T04:37:10;101547.80;;;13.20
68588;BMP180;55560;52.174;20.996;2022-10-17T04:39:38;101544.00;;;13.10
68588;BMP180;55560;52.174;20.996;2022-10-17T04:42:06;101545.20;;;13.10
68588;BMP180;55560;52.174;20.996;2022-10-17T04:44:34;101544.40;;;13.10
68588;BMP180;55560;52.174;20.996;2022-10-17T04:47:02;101547.80;;;13.10
68588;BMP180;55560;52.174;20.996;2022-10-17T04:49:30;101548.80;;;13.10
68588;BMP180;55560;52.174;20.996;2022-10-17T04:52:05;101540.40;;;13.10
68588;BMP180;55560;52.174;20.996;2022-10-17T04:54:44;101541.80;;;13.10
68588;BMP180;55560;52.174;20.996;2022-10-17T04:57:13;101540.60;;;13.10
68588;BMP180;55560;52.174;20.996;2022-10-17T04:59:46;101550.00;;;13.10
68588;BMP180;55560;52.174;20.996;2022-10-17T05:02:21;101554.20;;;13.10
68588;BMP180;55560;52.174;20.996;2022-10-17T05:04:50;101556.20;;;13.10
68588;BMP180;55560;52.174;20.996;2022-10-17T05:07:18;101558.40;;;13.10
68588;BMP180;55560;52.174;20.996;2022-10-17T05:10:04;101560.80;;;13.10
68588;BMP180;55560;52.174;20.996;2022-10-17T05:12:32;101564.60;;;13.04
68588;BMP180;55560;52.174;20.996;2022-10-17T05:15:00;101569.00;;;13.04
68588;BMP180;55560;52.174;20.996;2022-10-17T05:17:28;101580.40;;;13.02
68588;BMP180;55560;52.174;20.996;2022-10-17T05:19:56;101583.60;;;13.02
68588;BMP180;55560;52.174;20.996;2022-10-17T05:22:24;101586.60;;;13.10
68588;BMP180;55560;52.174;20.996;2022-10-17T05:24:51;101587.60;;;13.10
68588;BMP180;55560;52.174;20.996;2022-10-17T05:27:19;101591.40;;;13.10
68588;BMP180;55560;52.174;20.996;2022-10-17T05:29:47;101597.80;;;13.10
68588;BMP180;55560;52.174;20.996;2022-10-17T05:32:20;101593.00;;;13.10
68588;BMP180;55560;52.174;20.996;2022-10-17T05:34:48;101582.00;;;13.14
68588;BMP180;55560;52.174;20.996;2022-10-17T05:37:16;101582.00;;;13.20
68588;BMP180;55560;52.174;20.996;2022-10-17T05:39:47;101587.60;;;13.20
68588;BMP180;55560;52.174;20.996;2022-10-17T05:42:18;101596.60;;;13.20
68588;BMP180;55560;52.174;20.996;2022-10-17T05:44:46;101609.60;;;13.20
68588;BMP180;55560;52.174;20.996;2022-10-17T05:47:15;101624.60;;;13.30
68588;BMP180;55560;52.174;20.996;2022-10-17T05:49:43;101628.00;;;13.30
68588;BMP180;55560;52.174;20.996;2022-10-17T05:52:20;101632.20;;;13.38
68588;BMP180;55560;52.174;20.996;2022-10-17T05:54:58;101639.40;;;13.40
68588;BMP180;55560;52.174;20.996;2022-10-17T05:57:27;101637.60;;;13.46
68588;BMP180;55560;52.174;20.996;2022-10-17T05:59:56;101641.40;;;13.50
68588;BMP180;55560;52.174;20.996;2022-10-17T06:02:23;101637.20;;;13.50
68588;BMP180;55560;52.174;20.996;2022-10-17T06:04:52;101631.20;;;13.60
68588;BMP180;55560;52.174;20.996;2022-10-17T06:07:21;101631.20;;;13.60
68588;BMP180;55560;52.174;20.996;2022-10-17T06:09:49;101629.40;;;13.60
68588;BMP180;55560;52.174;20.996;2022-10-17T06:12:17;101622.00;;;13.70
68588;BMP180;55560;52.174;20.996;2022-10-17T06:14:45;101626.60;;;13.70
68588;BMP180;55560;52.174;20.996;2022-10-17T06:17:14;101630.40;;;13.70
68588;BMP180;55560;52.174;20.996;2022-10-17T06:19:43;101631.00;;;13.80
68588;BMP180;55560;52.174;20.996;2022-10-17T06:22:13;101645.80;;;13.80
68588;BMP180;55560;52.174;20.996;2022-10-17T06:24:41;101658.80;;;13.82
68588;BMP180;55560;52.174;20.996;2022-10-17T06:27:10;101661.60;;;13.90
68588;BMP180;55560;52.174;20.996;2022-10-17T06:29:40;101659.40;;;13.90
68588;BMP180;55560;52.174;20.996;2022-10-17T06:32:08;101658.20;;;13.94
68588;BMP180;55560;52.174;20.996;2022-10-17T06:34:42;101660.40;;;14.00
68588;BMP180;55560;52.174;20.996;2022-10-17T06:37:10;101661.60;;;14.00
68588;BMP180;55560;52.174;20.996;2022-10-17T06:39:39;101664.40;;;14.00
68588;BMP180;55560;52.174;20.996;2022-10-17T06:42:12;101662.60;;;14.10
68588;BMP180;55560;52.174;20.996;2022-10-17T06:45:02;101666.40;;;14.12
68588;BMP180;55560;52.174;20.996;2022-10-17T06:47:41;101675.00;;;14.20
68588;BMP180;55560;52.174;20.996;2022-10-17T06:50:41;101673.20;;;14.20
68588;BMP180;55560;52.174;20.996;2022-10-17T06:53:13;101675.40;;;14.30
68588;BMP180;55560;52.174;20.996;2022-10-17T06:55:52;101675.40;;;14.40
68588;BMP180;55560;52.174;20.996;2022-10-17T06:58:40;101681.00;;;14.40
68588;BMP180;55560;52.174;20.996;2022-10-17T07:01:21;101680.40;;;14.50
68588;BMP180;55560;52.174;20.996;2022-10-17T07:03:53;101682.80;;;14.60
68588;BMP180;55560;52.174;20.996;2022-10-17T07:06:22;101682.80;;;14.60
68588;BMP180;55560;52.174;20.996;2022-10-17T07:08:55;101683.20;;;14.66
68588;BMP180;55560;52.174;20.996;2022-10-17T07:11:23;101684.00;;;14.70
68588;BMP180;55560;52.174;20.996;2022-10-17T07:13:52;101683.60;;;14.80
68588;BMP180;55560;52.174;20.996;2022-10-17T07:16:21;101683.00;;;14.94
68588;BMP180;55560;52.174;20.996;2022-10-17T07:18:59;101684.80;;;15.02
68588;BMP180;55560;52.174;20.996;2022-10-17T07:21:33;101688.40;;;15.12
68588;BMP180;55560;52.174;20.996;2022-10-17T07:24:06;101695.80;;;15.30
68588;BMP180;55560;52.174;20.996;2022-10-17T07:26:35;101693.80;;;15.30
68588;BMP180;55560;52.174;20.996;2022-10-17T07:29:03;101699.80;;;15.40
68588;BMP180;55560;52.174;20.996;2022-10-17T07:31:37;101695.80;;;15.50
68588;BMP180;55560;52.174;20.996;2022-10-17T07:34:05;101688.60;;;15.60
68588;BMP180;55560;52.174;20.996;2022-10-17T07:36:33;101683.80;;;15.70
68588;BMP180;55560;52.174;20.996;2022-10-17T07:39:03;101679.80;;;15.78
68588;BMP180;55560;52.174;20.996;2022-10-17T07:41:32;101681.00;;;15.86
68588;BMP180;55560;52.174;20.996;2022-10-17T07:44:00;101683.20;;;16.00
68588;BMP180;55560;52.174;20.996;2022-10-17T07:46:33;101689.40;;;16.20
68588;BMP180;55560;52.174;20.996;2022-10-17T07:49:01;101699.20;;;16.50
68588;BMP180;55560;52.174;20.996;2022-10-17T07:51:28;101704.80;;;16.82
68588;BMP180;55560;52.174;20.996;2022-10-17T07:53:56;101703.60;;;17.18
68588;BMP180;55560;52.174;20.996;2022-10-17T07:56:24;101706.80;;;17.62
68588;BMP180;55560;52.174;20.996;2022-10-17T07:58:52;101713.00;;;18.10
68588;BMP180;55560;52.174;20.996;2022-10-17T08:01:20;101718.40;;;18.60
68588;BMP180;55560;52.174;20.996;2022-10-17T08:03:48;101720.60;;;19.10
68588;BMP180;55560;52.174;20.996;2022-10-17T08:06:15;101724.00;;;19.30
68588;BMP180;55560;52.174;20.996;2022-10-17T08:08:43;101723.00;;;19.40
68588;BMP180;55560;52.174;20.996;2022-10-17T08:11:13;101725.40;;;19.40
68588;BMP180;55560;52.174;20.996;2022-10-17T08:13:41;101732.00;;;19.20
68588;BMP180;55560;52.174;20.996;2022-10-17T08:16:11;101729.40;;;19.14
68588;BMP180;55560;52.174;20.996;2022-10-17T08:18:41;101729.00;;;19.00
68588;BMP180;55560;52.174;20.996;2022-10-17T08:21:11;101735.60;;;19.00
68588;BMP180;55560;52.174;20.996;2022-10-17T08:23:40;101726.80;;;19.00
68588;BMP180;55560;52.174;20.996;2022-10-17T08:26:09;101727.40;;;19.20
68588;BMP180;55560;52.174;20.996;2022-10-17T08:28:40;101725.00;;;19.64
68588;BMP180;55560;52.174;20.996;2022-10-17T08:31:13;101728.20;;;20.06
68588;BMP180;55560;52.174;20.996;2022-10-17T08:33:41;101734.40;;;20.52
68588;BMP180;55560;52.174;20.996;2022-10-17T08:36:14;101734.00;;;20.90
68588;BMP180;55560;52.174;20.996;2022-10-17T08:38:42;101733.20;;;21.10
68588;BMP180;55560;52.174;20.996;2022-10-17T08:41:26;101734.20;;;21.30
68588;BMP180;55560;52.174;20.996;2022-10-17T08:44:38;101733.80;;;21.58
68588;BMP180;55560;52.174;20.996;2022-10-17T08:47:20;101726.20;;;21.46
68588;BMP180;55560;52.174;20.996;2022-10-17T08:49:56;101725.20;;;21.20
68588;BMP180;55560;52.174;20.996;2022-10-17T08:52:41;101722.60;;;21.06
68588;BMP180;55560;52.174;20.996;2022-10-17T08:55:36;101715.00;;;20.80
68588;BMP180;55560;52.174;20.996;2022-10-17T08:58:35;101721.00;;;20.60
68588;BMP180;55560;52.174;20.996;2022-10-17T16:26:27;101593.00;;;19.50
68588;BMP180;55560;52.174;20.996;2022-10-17T16:28:56;101589.40;;;19.50
68588;BMP180;55560;52.174;20.996;2022-10-17T16:31:27;101585.60;;;19.40
68588;BMP180;55560;52.174;20.996;2022-10-17T16:33:58;101582.60;;;19.40
68588;BMP180;55560;52.174;20.996;2022-10-17T16:36:26;101580.20;;;19.30
68588;BMP180;55560;52.174;20.996;2022-10-17T16:38:54;101575.60;;;19.30
68588;BMP180;55560;52.174;20.996;2022-10-17T16:41:29;101572.00;;;19.30
68588;BMP180;55560;52.174;20.996;2022-10-17T16:44:06;101575.00;;;19.20
68588;BMP180;55560;52.174;20.996;2022-10-17T16:46:36;101571.60;;;19.20
68588;BMP180;55560;52.174;20.996;2022-10-17T16:49:05;101574.20;;;19.12
68588;BMP180;55560;52.174;20.996;2022-10-17T16:51:34;101575.00;;;19.10
68588;BMP180;55560;52.174;20.996;2022-10-17T16:54:02;101578.20;;;19.10
68588;BMP180;55560;52.174;20.996;2022-10-17T16:56:31;101572.00;;;19.00
68588;BMP180;55560;52.174;20.996;2022-10-17T16:59:00;101569.20;;;19.00
68588;BMP180;55560;52.174;20.996;2022-10-17T17:01:28;101570.20;;;19.00
68588;BMP180;55560;52.174;20.996;2022-10-17T17:03:56;101571.80;;;18.98
68588;BMP180;55560;52.174;20.996;2022-10-17T17:06:28;101576.40;;;18.90
68588;BMP180;55560;52.174;20.996;2022-10-17T17:08:56;101578.00;;;18.84
68588;BMP180;55560;52.174;20.996;2022-10-17T17:11:26;101571.40;;;18.80
68588;BMP180;55560;52.174;20.996;2022-10-17T17:13:56;101572.60;;;18.74
68588;BMP180;55560;52.174;20.996;2022-10-17T17:16:26;101571.20;;;18.70
68588;BMP180;55560;52.174;20.996;2022-10-17T17:19:08;101567.00;;;18.60
68588;BMP180;55560;52.174;20.996;2022-10-17T17:21:36;101565.60;;;18.60
68588;BMP180;55560;52.174;20.996;2022-10-17T17:24:05;101566.20;;;18.56
68588;BMP180;55560;52.174;20.996;2022-10-17T17:26:34;101569.00;;;18.50
